createdAt,value
2018-12-14T00:00:05.573Z,27.8
2018-12-14T00:02:05.316Z,27.7
2018-12-14T00:04:08.553Z,27.7
2018-12-14T00:06:05.323Z,27.7
2018-12-14T00:08:05.987Z,27.8
2018-12-14T00:10:05.690Z,27.9
2018-12-14T00:12:05.411Z,27.7
2018-12-14T00:14:08.716Z,27.7
2018-12-14T00:16:05.768Z,27.7
2018-12-14T00:18:05.673Z,27.8
2018-12-14T00:20:05.615Z,27.8
2018-12-14T00:22:07.841Z,27.8
2018-12-14T00:24:05.526Z,27.7
2018-12-14T00:26:05.752Z,27.7
2018-12-14T00:28:08.002Z,27.7
2018-12-14T00:30:05.780Z,27.7
2018-12-14T00:32:08.532Z,27.7
2018-12-14T00:34:05.267Z,27.7
2018-12-14T00:36:06.008Z,27.7
2018-12-14T00:38:05.303Z,27.7
2018-12-14T00:40:07.531Z,27.7
2018-12-14T00:42:05.187Z,27.7
2018-12-14T00:44:10.985Z,27.7
2018-12-14T00:46:05.187Z,27.5
2018-12-14T00:48:08.417Z,27.6
2018-12-14T00:50:05.082Z,27.6
2018-12-14T00:52:05.837Z,27.5
2018-12-14T00:54:05.594Z,27.6
2018-12-14T00:56:07.799Z,27.6
2018-12-14T00:58:05.575Z,27.6
2018-12-14T01:00:05.274Z,27.6
2018-12-14T01:02:06.050Z,27.5
2018-12-14T01:04:05.303Z,27.4
2018-12-14T01:06:10.234Z,27.6
2018-12-14T01:08:05.047Z,27.6
2018-12-14T01:10:05.672Z,27.6
2018-12-14T01:12:05.570Z,27.6
2018-12-14T01:14:05.347Z,27.5
2018-12-14T01:16:05.096Z,27.5
2018-12-14T01:18:05.885Z,27.5
2018-12-14T01:20:05.075Z,27.5
2018-12-14T01:22:05.782Z,27.4
2018-12-14T01:24:07.975Z,27.5
2018-12-14T01:26:05.684Z,27.5
2018-12-14T01:28:05.867Z,27.5
2018-12-14T01:30:05.509Z,27.5
2018-12-14T01:32:05.372Z,27.4
2018-12-14T01:34:05.062Z,27.5
2018-12-14T01:36:05.682Z,27.3
2018-12-14T01:38:05.340Z,27.5
2018-12-14T01:40:07.543Z,27.5
2018-12-14T01:42:05.646Z,27.5
2018-12-14T01:44:05.446Z,27.4
2018-12-14T01:46:05.710Z,27.4
2018-12-14T01:48:05.449Z,27.3
2018-12-14T01:50:05.141Z,27.4
2018-12-14T01:52:05.917Z,27.4
2018-12-14T01:54:08.163Z,27.4
2018-12-14T01:56:05.928Z,27.5
2018-12-14T01:58:05.174Z,27.4
2018-12-14T02:00:05.951Z,27.4
2018-12-14T02:02:05.640Z,27.3
2018-12-14T02:04:07.917Z,27.4
2018-12-14T02:06:08.078Z,27.2
2018-12-14T02:08:05.737Z,27.2
2018-12-14T02:10:05.409Z,27.3
2018-12-14T02:14:32.517Z,27.2
2018-12-14T02:14:33.163Z,27.3
2018-12-14T02:16:05.897Z,27.3
2018-12-14T02:18:08.330Z,27.2
2018-12-14T02:20:12.674Z,27.2
2018-12-14T02:22:08.454Z,27.2
2018-12-14T02:24:05.102Z,27.2
2018-12-14T02:26:05.784Z,27.2
2018-12-14T02:28:05.449Z,27.2
2018-12-14T02:30:05.189Z,27.1
2018-12-14T02:32:05.918Z,27.2
2018-12-14T02:34:05.681Z,27.2
2018-12-14T02:36:05.525Z,27.2
2018-12-14T02:38:05.215Z,27.3
2018-12-14T02:40:05.419Z,27.2
2018-12-14T02:42:05.110Z,27
2018-12-14T02:44:07.663Z,27.3
2018-12-14T02:46:05.376Z,27.1
2018-12-14T02:48:05.125Z,27.2
2018-12-14T02:50:10.936Z,27.2
2018-12-14T02:52:05.625Z,27.2
2018-12-14T02:54:07.855Z,27.2
2018-12-14T02:56:05.532Z,27.2
2018-12-14T02:58:05.219Z,27.2
2018-12-14T03:00:05.928Z,27.1
2018-12-14T03:02:05.616Z,27.1
2018-12-14T03:04:05.330Z,27
2018-12-14T03:06:05.041Z,27.2
2018-12-14T03:08:05.802Z,27.2
2018-12-14T03:10:08.030Z,27.1
2018-12-14T03:12:05.245Z,27
2018-12-14T03:14:05.982Z,27.2
2018-12-14T03:16:05.710Z,27.2
2018-12-14T03:18:05.623Z,27.1
2018-12-14T03:20:05.293Z,27
2018-12-14T03:22:04.994Z,27
2018-12-14T03:24:05.690Z,27
2018-12-14T03:26:07.913Z,27.1
2018-12-14T03:28:05.581Z,27.1
2018-12-14T03:30:05.287Z,27
2018-12-14T03:32:05.127Z,26.9
2018-12-14T03:34:05.831Z,26.9
2018-12-14T03:36:05.539Z,26.9
2018-12-14T03:38:05.317Z,27
2018-12-14T03:40:05.035Z,27.1
2018-12-14T03:42:08.299Z,27
2018-12-14T03:44:06.070Z,27
2018-12-14T03:46:08.546Z,27.1
2018-12-14T03:48:05.240Z,27.1
2018-12-14T03:50:05.923Z,27
2018-12-14T03:52:05.572Z,27
2018-12-14T03:54:08.351Z,26.9
2018-12-14T03:56:05.154Z,27
2018-12-14T03:58:05.819Z,26.9
2018-12-14T04:00:05.627Z,27.1
2018-12-14T04:02:05.334Z,27
2018-12-14T04:04:05.060Z,27
2018-12-14T04:06:05.830Z,27
2018-12-14T04:08:05.808Z,27
2018-12-14T04:10:15.661Z,26.9
2018-12-14T04:12:05.401Z,26.9
2018-12-14T04:14:05.087Z,26.9
2018-12-14T04:16:05.793Z,26.9
2018-12-14T04:18:05.692Z,26.9
2018-12-14T04:20:05.393Z,26.9
2018-12-14T04:22:07.581Z,26.8
2018-12-14T04:24:05.328Z,26.8
2018-12-14T04:26:05.052Z,26.9
2018-12-14T04:28:05.835Z,26.9
2018-12-14T04:30:05.541Z,26.8
2018-12-14T04:32:05.171Z,26.8
2018-12-14T04:34:05.872Z,27
2018-12-14T04:36:10.631Z,26.8
2018-12-14T04:38:05.367Z,26.8
2018-12-14T04:40:05.076Z,26.8
2018-12-14T04:42:08.311Z,26.8
2018-12-14T04:44:05.985Z,26.8
2018-12-14T04:46:05.200Z,26.9
2018-12-14T04:48:05.883Z,27
2018-12-14T04:50:05.643Z,27
2018-12-14T04:52:05.914Z,27
2018-12-14T04:54:05.553Z,27.2
2018-12-14T04:56:05.282Z,27.1
2018-12-14T04:58:05.246Z,27.2
2018-12-14T05:00:06.002Z,27.2
2018-12-14T05:02:05.227Z,27.2
2018-12-14T05:04:05.992Z,27.1
2018-12-14T05:06:07.803Z,27.2
2018-12-14T05:08:05.551Z,27.3
2018-12-14T05:10:07.813Z,27.2
2018-12-14T05:12:13.275Z,27.2
2018-12-14T05:14:05.980Z,27.3
2018-12-14T05:16:08.269Z,27.3
2018-12-14T05:18:07.736Z,27.3
2018-12-14T05:20:05.395Z,27.2
2018-12-14T05:22:05.090Z,27.4
2018-12-14T05:24:05.839Z,27.3
2018-12-14T05:26:10.156Z,27.3
2018-12-14T05:28:15.933Z,27.3
2018-12-14T05:30:08.098Z,27.4
2018-12-14T05:32:05.854Z,27.4
2018-12-14T05:34:05.081Z,27.4
2018-12-14T05:36:05.759Z,27.3
2018-12-14T05:38:10.487Z,27.8
2018-12-14T05:40:07.981Z,27.4
2018-12-14T05:42:05.735Z,27.4
2018-12-14T05:44:07.934Z,27.3
2018-12-14T05:46:05.587Z,27.3
2018-12-14T05:48:05.270Z,27.3
2018-12-14T05:50:05.879Z,27.3
2018-12-14T05:52:05.630Z,27.2
2018-12-14T05:54:06.378Z,27.2
2018-12-14T05:56:07.590Z,27.1
2018-12-14T05:58:07.755Z,27.1
2018-12-14T06:00:06.034Z,26.9
2018-12-14T06:02:05.769Z,27.1
2018-12-14T06:04:05.249Z,27
2018-12-14T06:06:05.949Z,27
2018-12-14T06:08:05.139Z,27
2018-12-14T06:10:06.355Z,27
2018-12-14T06:12:05.376Z,27
2018-12-14T06:14:05.104Z,27.1
2018-12-14T06:16:08.320Z,27
2018-12-14T06:18:05.244Z,27
2018-12-14T06:20:05.897Z,26.9
2018-12-14T06:22:08.079Z,26.9
2018-12-14T06:24:05.252Z,27
2018-12-14T06:26:10.966Z,27
2018-12-14T06:28:05.660Z,27
2018-12-14T06:30:05.441Z,27
2018-12-14T06:32:05.137Z,27
2018-12-14T06:34:10.947Z,27.1
2018-12-14T06:36:13.253Z,27.1
2018-12-14T06:38:05.985Z,27.1
2018-12-14T06:40:05.683Z,27.1
2018-12-14T06:42:05.349Z,27.2
2018-12-14T06:44:05.168Z,27.2
2018-12-14T06:46:05.877Z,27.1
2018-12-14T06:48:05.551Z,27.3
2018-12-14T06:50:05.261Z,27.2
2018-12-14T06:52:05.995Z,27.2
2018-12-14T06:54:05.231Z,27.1
2018-12-14T06:56:05.960Z,27.1
2018-12-14T06:58:08.265Z,27.2
2018-12-14T07:00:05.059Z,27.3
2018-12-14T07:02:05.873Z,27
2018-12-14T07:04:05.554Z,27
2018-12-14T07:06:05.295Z,27.2
2018-12-14T07:08:08.530Z,27
2018-12-14T07:10:07.845Z,27
2018-12-14T07:12:08.090Z,27
2018-12-14T07:14:05.793Z,27
2018-12-14T07:16:05.062Z,27.1
2018-12-14T07:18:05.979Z,27.1
2018-12-14T07:20:05.728Z,27.1
2018-12-14T07:22:05.428Z,27.1
2018-12-14T07:24:05.096Z,26.9
2018-12-14T07:26:13.417Z,26.9
2018-12-14T07:28:05.266Z,26.9
2018-12-14T07:30:06.005Z,27
2018-12-14T07:32:05.649Z,27
2018-12-14T07:34:10.415Z,26.8
2018-12-14T07:36:05.171Z,27
2018-12-14T07:38:05.972Z,27
2018-12-14T07:40:05.164Z,27
2018-12-14T07:42:05.955Z,27
2018-12-14T07:44:07.713Z,26.8
2018-12-14T07:46:10.507Z,26.9
2018-12-14T07:48:10.803Z,26.9
2018-12-14T07:50:08.024Z,26.9
2018-12-14T07:52:05.771Z,26.9
2018-12-14T07:54:05.516Z,27
2018-12-14T07:56:05.236Z,27
2018-12-14T07:58:10.991Z,27
2018-12-14T08:00:05.728Z,27
2018-12-14T08:02:05.451Z,27
2018-12-14T08:04:07.913Z,27.4
2018-12-14T08:06:05.695Z,27.4
2018-12-14T08:08:05.378Z,27.3
2018-12-14T08:10:05.153Z,27.3
2018-12-14T08:12:05.834Z,27.3
2018-12-14T08:14:05.525Z,27.4
2018-12-14T08:16:05.409Z,27.4
2018-12-14T08:18:05.966Z,27.3
2018-12-14T08:20:05.190Z,27.4
2018-12-14T08:22:08.618Z,27.4
2018-12-14T08:24:07.902Z,27.5
2018-12-14T08:26:05.645Z,27.5
2018-12-14T08:28:08.397Z,27.5
2018-12-14T08:30:05.141Z,27.5
2018-12-14T08:32:05.892Z,27.6
2018-12-14T08:34:05.571Z,27.4
2018-12-14T08:36:05.237Z,27.4
2018-12-14T08:38:08.432Z,27.6
2018-12-14T08:40:05.125Z,27.6
2018-12-14T08:42:05.839Z,27.4
2018-12-14T08:44:05.741Z,27.4
2018-12-14T08:46:07.982Z,27.3
2018-12-14T08:48:05.662Z,27.3
2018-12-14T08:50:05.871Z,27.6
2018-12-14T08:52:05.512Z,27.6
2018-12-14T08:54:05.756Z,27.4
2018-12-14T08:56:05.038Z,27.6
2018-12-14T08:58:05.761Z,27.7
2018-12-14T09:00:13.038Z,27.7
2018-12-14T09:02:05.235Z,27.7
2018-12-14T09:04:05.881Z,27.8
2018-12-14T09:06:05.580Z,27.9
2018-12-14T09:08:05.320Z,28
2018-12-14T09:10:05.625Z,27.9
2018-12-14T09:12:05.920Z,28.1
2018-12-14T09:14:10.736Z,28.2
2018-12-14T09:16:05.391Z,28.2
2018-12-14T09:18:08.458Z,28.2
2018-12-14T09:20:05.884Z,28.2
2018-12-14T09:22:05.599Z,28.3
2018-12-14T09:24:05.394Z,28.2
2018-12-14T09:26:05.123Z,28.2
2018-12-14T09:28:05.802Z,28.2
2018-12-14T09:30:08.026Z,28.4
2018-12-14T09:32:07.813Z,28.3
2018-12-14T09:34:05.507Z,28.3
2018-12-14T09:36:08.250Z,28.6
2018-12-14T09:38:05.578Z,28.6
2018-12-14T09:40:14.759Z,28.7
2018-12-14T09:42:05.201Z,28.6
2018-12-14T09:44:10.975Z,28.7
2018-12-14T09:46:05.204Z,28.7
2018-12-14T09:48:08.380Z,28.8
2018-12-14T09:50:12.770Z,28.7
2018-12-14T09:52:05.477Z,28.7
2018-12-14T09:54:05.488Z,28.8
2018-12-14T09:56:07.740Z,28.8
2018-12-14T09:58:05.428Z,28.8
2018-12-14T10:00:05.705Z,28.8
2018-12-14T10:02:05.394Z,28.8
2018-12-14T10:04:05.073Z,28.7
2018-12-14T10:06:06.869Z,28.6
2018-12-14T10:08:05.833Z,28.6
2018-12-14T10:10:08.947Z,28.7
2018-12-14T10:12:05.891Z,28.7
2018-12-14T10:14:05.610Z,28.6
2018-12-14T10:16:05.305Z,28.6
2018-12-14T10:18:07.797Z,28.5
2018-12-14T10:20:08.012Z,28.6
2018-12-14T10:22:10.265Z,28.4
2018-12-14T10:24:08.509Z,28.6
2018-12-14T10:26:05.887Z,28.4
2018-12-14T10:28:05.761Z,28.4
2018-12-14T10:30:05.421Z,28.5
2018-12-14T10:32:05.192Z,28.5
2018-12-14T10:34:05.867Z,28.5
2018-12-14T10:36:05.093Z,28.6
2018-12-14T10:38:07.885Z,28.8
2018-12-14T10:40:08.103Z,29
2018-12-14T10:42:05.836Z,29
2018-12-14T10:44:08.125Z,29.1
2018-12-14T10:46:07.877Z,29.2
2018-12-14T10:48:05.689Z,29.2
2018-12-14T10:50:05.507Z,29
2018-12-14T10:52:05.253Z,29.2
2018-12-14T10:54:06.042Z,29.2
2018-12-14T10:56:05.695Z,29.1
2018-12-14T10:58:08.426Z,28.9
2018-12-14T11:00:05.108Z,28.9
2018-12-14T11:02:05.756Z,28.9
2018-12-14T11:04:05.077Z,28.8
2018-12-14T11:06:05.814Z,29
2018-12-14T11:08:05.570Z,29.1
2018-12-14T11:10:05.305Z,29
2018-12-14T11:12:05.553Z,29.2
2018-12-14T11:14:05.855Z,29.1
2018-12-14T11:16:05.812Z,29.1
2018-12-14T11:18:08.257Z,29.4
2018-12-14T11:20:05.551Z,29.4
2018-12-14T11:22:05.248Z,29.4
2018-12-14T11:24:08.488Z,29.7
2018-12-14T11:26:05.413Z,29.7
2018-12-14T11:28:05.566Z,29.8
2018-12-14T11:30:07.824Z,29.9
2018-12-14T11:32:05.515Z,29.9
2018-12-14T11:34:05.446Z,30
2018-12-14T11:36:05.212Z,30
2018-12-14T11:38:05.916Z,30.1
2018-12-14T11:40:05.617Z,30.3
2018-12-14T11:42:05.863Z,30.1
2018-12-14T11:44:05.543Z,30.2
2018-12-14T11:46:05.182Z,30.4
2018-12-14T11:48:05.884Z,30.6
2018-12-14T11:50:10.683Z,31
2018-12-14T11:52:05.545Z,31
2018-12-14T11:54:05.304Z,30.9
2018-12-14T11:56:08.527Z,30.5
2018-12-14T11:58:15.305Z,30.2
2018-12-14T12:00:08.550Z,30.4
2018-12-14T12:02:05.292Z,30.4
2018-12-14T12:04:05.028Z,30.4
2018-12-14T12:06:08.283Z,30.3
2018-12-14T12:08:08.488Z,30.2
2018-12-14T12:10:05.162Z,30
2018-12-14T12:12:05.916Z,30.1
2018-12-14T12:14:05.599Z,30
2018-12-14T12:16:05.244Z,29.9
2018-12-14T12:18:05.138Z,29.9
2018-12-14T12:20:05.867Z,29.9
2018-12-14T12:22:05.963Z,29.9
2018-12-14T12:24:05.669Z,29.9
2018-12-14T12:26:05.397Z,29.7
2018-12-14T12:28:05.081Z,29.6
2018-12-14T12:30:05.515Z,29.5
2018-12-14T12:32:05.722Z,29.5
2018-12-14T12:34:05.435Z,29.5
2018-12-14T12:36:05.758Z,29.6
2018-12-14T12:38:05.490Z,29.5
2018-12-14T12:40:05.219Z,29.4
2018-12-14T12:42:05.964Z,29.4
2018-12-14T12:44:05.270Z,29.3
2018-12-14T12:46:05.272Z,29.4
2018-12-14T12:48:06.041Z,29.3
2018-12-14T12:50:05.717Z,29.2
2018-12-14T12:52:05.502Z,29.4
2018-12-14T12:54:05.174Z,29.2
2018-12-14T12:56:05.812Z,29.3
2018-12-14T12:58:05.569Z,29.4
2018-12-14T13:00:05.368Z,29.2
2018-12-14T13:02:05.088Z,29.2
2018-12-14T13:04:05.782Z,29.3
2018-12-14T13:06:10.495Z,29.1
2018-12-14T13:08:05.209Z,29.2
2018-12-14T13:10:05.902Z,29.2
2018-12-14T13:12:05.611Z,29.2
2018-12-14T13:14:05.420Z,29.1
2018-12-14T13:16:05.126Z,29.1
2018-12-14T13:18:08.097Z,28.9
2018-12-14T13:20:10.827Z,28.9
2018-12-14T13:22:08.064Z,29.1
2018-12-14T13:24:05.760Z,29
2018-12-14T13:26:05.483Z,28.9
2018-12-14T13:28:05.170Z,29
2018-12-14T13:30:05.491Z,28.8
2018-12-14T13:32:05.168Z,28.8
2018-12-14T13:34:05.962Z,28.7
2018-12-14T13:36:05.171Z,28.8
2018-12-14T13:38:05.877Z,28.7
2018-12-14T13:40:05.578Z,28.8
2018-12-14T13:42:05.321Z,28.6
2018-12-14T13:44:05.163Z,28.8
2018-12-14T13:46:05.886Z,28.6
2018-12-14T13:48:05.158Z,28.6
2018-12-14T13:50:05.913Z,28.6
2018-12-14T13:52:05.661Z,28.5
2018-12-14T13:54:05.340Z,28.5
2018-12-14T13:56:05.565Z,28.5
2018-12-14T13:58:05.246Z,28.6
2018-12-14T14:00:08.048Z,28.4
2018-12-14T14:02:05.746Z,28.4
2018-12-14T14:04:08.013Z,28.3
2018-12-14T14:06:05.812Z,28.3
2018-12-14T14:08:05.510Z,28.4
2018-12-14T14:10:05.808Z,28.3
2018-12-14T14:12:05.063Z,28.4
2018-12-14T14:14:05.799Z,28.4
2018-12-14T14:16:05.475Z,28.4
2018-12-14T14:18:08.414Z,28.4
2018-12-14T14:20:05.865Z,28.4
2018-12-14T14:22:05.587Z,28.4
2018-12-14T14:24:05.292Z,28.4
2018-12-14T14:26:08.508Z,28.4
2018-12-14T14:28:05.197Z,28.3
2018-12-14T14:30:05.906Z,28.3
2018-12-14T14:32:05.572Z,28.3
2018-12-14T14:34:05.267Z,28.4
2018-12-14T14:36:05.510Z,28.2
2018-12-14T14:38:05.273Z,28.3
2018-12-14T14:40:11.060Z,28.3
2018-12-14T14:42:05.853Z,28.3
2018-12-14T14:44:10.685Z,28.3
2018-12-14T14:46:07.907Z,28.2
2018-12-14T14:48:05.636Z,28.2
2018-12-14T14:50:05.337Z,28.2
2018-12-14T14:52:07.550Z,28.2
2018-12-14T14:54:05.292Z,28.2
2018-12-14T14:56:05.958Z,28.3
2018-12-14T14:58:05.677Z,28.3
2018-12-14T15:00:05.407Z,28.3
2018-12-14T15:02:05.107Z,28.4
2018-12-14T15:04:10.881Z,28.4
2018-12-14T15:06:08.177Z,28.4
2018-12-14T15:08:11.086Z,28.3
2018-12-14T15:10:05.890Z,28.3
2018-12-14T15:12:05.530Z,28.4
2018-12-14T15:14:10.273Z,28.3
2018-12-14T15:16:05.935Z,28.3
2018-12-14T15:18:10.972Z,28.3
2018-12-14T15:20:05.652Z,28.3
2018-12-14T15:22:07.869Z,28.2
2018-12-14T15:24:08.126Z,28.2
2018-12-14T15:26:05.866Z,28.2
2018-12-14T15:28:05.551Z,28.2
2018-12-14T15:30:05.318Z,28.3
2018-12-14T15:32:06.014Z,28.1
2018-12-14T15:34:05.681Z,28.3
2018-12-14T15:36:05.367Z,28.2
2018-12-14T15:38:07.588Z,28.2
2018-12-14T15:40:05.314Z,28.1
2018-12-14T15:42:06.023Z,28.1
2018-12-14T15:44:05.661Z,28.1
2018-12-14T15:46:05.374Z,28.3
2018-12-14T15:48:05.096Z,28.1
2018-12-14T15:50:05.344Z,28.1
2018-12-14T15:52:07.550Z,28
2018-12-14T15:54:07.855Z,28
2018-12-14T15:56:05.523Z,28
2018-12-14T15:58:13.046Z,28
2018-12-14T16:00:05.954Z,28
2018-12-14T16:02:05.613Z,28
2018-12-14T16:04:10.325Z,28
2018-12-14T16:06:05.064Z,28
2018-12-14T16:08:05.735Z,28
2018-12-14T16:10:05.559Z,28
2018-12-14T16:12:10.307Z,28.1
2018-12-14T16:14:06.024Z,28.1
2018-12-14T16:16:10.797Z,28
2018-12-14T16:18:05.350Z,27.9
2018-12-14T16:20:05.105Z,28.1
2018-12-14T16:22:05.912Z,28
2018-12-14T16:24:10.292Z,28.5
2018-12-14T16:26:05.997Z,28.5
2018-12-14T16:28:08.269Z,28.5
2018-12-14T16:30:05.985Z,28.5
2018-12-14T16:32:10.739Z,28.7
2018-12-14T16:34:05.415Z,28.7
2018-12-14T16:36:07.712Z,31.4
2018-12-14T16:38:05.422Z,31.5
2018-12-14T16:40:05.220Z,30.4
2018-12-14T16:42:05.920Z,30.1
2018-12-14T16:44:05.648Z,30.3
2018-12-14T16:46:05.320Z,30.4
2018-12-14T16:48:11.084Z,30.6
2018-12-14T16:50:05.748Z,30.5
2018-12-14T16:52:08.032Z,30.9
2018-12-14T16:54:05.724Z,30.9
2018-12-14T16:56:06.008Z,30.8
2018-12-14T16:58:05.774Z,31
2018-12-14T17:00:10.532Z,30.7
2018-12-14T17:02:05.247Z,30.7
2018-12-14T17:04:05.924Z,30.7
2018-12-14T17:06:05.604Z,30.5
2018-12-14T17:08:05.308Z,30.4
2018-12-14T17:10:05.034Z,30.4
2018-12-14T17:12:05.761Z,30.4
2018-12-14T17:14:10.506Z,30.4
2018-12-14T17:16:05.143Z,30.1
2018-12-14T17:18:05.200Z,30.1
2018-12-14T17:20:05.895Z,30
2018-12-14T17:22:07.643Z,29.9
2018-12-14T17:24:06.538Z,29.9
2018-12-14T17:26:07.985Z,29.8
2018-12-14T17:28:07.361Z,29.8
2018-12-14T17:30:05.083Z,29.8
2018-12-14T17:32:05.900Z,29.8
2018-12-14T17:34:09.284Z,29.7
2018-12-14T17:36:08.457Z,29.6
2018-12-14T17:38:05.145Z,29.8
2018-12-14T17:40:05.986Z,29.6
2018-12-14T17:42:05.770Z,29.6
2018-12-14T17:44:07.973Z,29.6
2018-12-14T17:46:05.164Z,29.6
2018-12-14T17:48:05.370Z,29.6
2018-12-14T17:50:05.324Z,29.7
2018-12-14T17:52:05.318Z,29.7
2018-12-14T17:54:06.083Z,29.6
2018-12-14T17:56:05.743Z,29.6
2018-12-14T17:58:10.605Z,29.3
2018-12-14T18:00:07.842Z,29.5
2018-12-14T18:02:05.508Z,29.4
2018-12-14T18:04:05.248Z,29.3
2018-12-14T18:06:05.986Z,29.3
2018-12-14T18:08:05.760Z,29.3
2018-12-14T18:10:05.436Z,29.3
2018-12-14T18:12:05.145Z,29.1
2018-12-14T18:14:08.385Z,29.2
2018-12-14T18:16:07.651Z,29.1
2018-12-14T18:18:05.547Z,29.2
2018-12-14T18:20:05.240Z,29.4
2018-12-14T18:22:06.183Z,29.2
2018-12-14T18:24:07.933Z,29.2
2018-12-14T18:26:05.673Z,29.2
2018-12-14T18:28:05.382Z,29.1
2018-12-14T18:30:05.043Z,29.1
2018-12-14T18:32:05.691Z,29.1
2018-12-14T18:34:05.340Z,29
2018-12-14T18:36:12.588Z,28.9
2018-12-14T18:38:05.777Z,28.9
2018-12-14T18:40:08.032Z,29
2018-12-14T18:42:11.044Z,29
2018-12-14T18:44:05.737Z,29
2018-12-14T18:46:05.515Z,28.9
2018-12-14T18:48:05.299Z,29.1
2018-12-14T18:50:05.981Z,28.9
2018-12-14T18:52:07.740Z,28.8
2018-12-14T18:54:05.443Z,28.8
2018-12-14T18:56:05.327Z,28.9
2018-12-14T18:58:07.590Z,29.1
2018-12-14T19:00:05.689Z,28.9
2018-12-14T19:02:05.391Z,28.9
2018-12-14T19:04:05.087Z,29
2018-12-14T19:06:05.765Z,29.2
2018-12-14T19:08:05.414Z,29.1
2018-12-14T19:10:05.308Z,29.4
2018-12-14T19:12:05.177Z,29.5
2018-12-14T19:14:05.848Z,29.5
2018-12-14T19:16:05.511Z,29.7
2018-12-14T19:18:05.464Z,29.6
2018-12-14T19:20:05.135Z,29.6
2018-12-14T19:22:05.774Z,29.6
2018-12-14T19:24:05.707Z,29.7
2018-12-14T19:26:05.896Z,29.5
2018-12-14T19:28:05.589Z,29.5
2018-12-14T19:30:05.344Z,29.5
2018-12-14T19:32:05.860Z,29.4
2018-12-14T19:34:10.605Z,29.5
2018-12-14T19:36:05.300Z,29.4
2018-12-14T19:38:05.499Z,29.3
2018-12-14T19:40:07.710Z,29.3
2018-12-14T19:42:07.923Z,29.1
2018-12-14T19:44:05.351Z,29.3
2018-12-14T19:46:06.990Z,29.4
2018-12-14T19:48:05.680Z,29.3
2018-12-14T19:50:05.382Z,29.4
2018-12-14T19:52:07.625Z,29.1
2018-12-14T19:54:05.381Z,29.1
2018-12-14T19:56:05.083Z,29.1
2018-12-14T19:58:10.851Z,29.1
2018-12-14T20:00:05.049Z,29.1
2018-12-14T20:02:05.753Z,29.2
2018-12-14T20:04:05.514Z,29.1
2018-12-14T20:06:05.262Z,29.2
2018-12-14T20:08:05.580Z,29.2
2018-12-14T20:10:05.899Z,29.2
2018-12-14T20:12:05.619Z,29.2
2018-12-14T20:14:05.366Z,29.2
2018-12-14T20:16:05.154Z,29.1
2018-12-14T20:18:05.670Z,29.2
2018-12-14T20:20:05.340Z,29.2
2018-12-14T20:22:05.063Z,29.1
2018-12-14T20:24:05.773Z,29
2018-12-14T20:26:05.434Z,29.1
2018-12-14T20:28:05.114Z,29.1
2018-12-14T20:30:05.832Z,29.1
2018-12-14T20:32:08.086Z,29.1
2018-12-14T20:34:05.812Z,29.1
2018-12-14T20:36:10.546Z,29.1
2018-12-14T20:38:05.403Z,29.1
2018-12-14T20:40:05.134Z,29.1
2018-12-14T20:42:05.865Z,29.3
2018-12-14T20:44:05.596Z,29.2
2018-12-14T20:46:05.464Z,29.2
2018-12-14T20:48:05.311Z,29
2018-12-14T20:50:08.522Z,29.2
2018-12-14T20:52:05.404Z,29.2
2018-12-14T20:54:05.079Z,29.1
2018-12-14T20:56:05.771Z,29.2
2018-12-14T20:58:06.001Z,29.1
2018-12-14T21:00:05.236Z,28.9
2018-12-14T21:02:08.441Z,29.2
2018-12-14T21:04:07.672Z,29.1
2018-12-14T21:06:05.348Z,29.1
2018-12-14T21:08:05.003Z,28.9
2018-12-14T21:10:05.672Z,28.8
2018-12-14T21:12:05.404Z,28.9
2018-12-14T21:14:05.374Z,28.8
2018-12-14T21:16:07.760Z,28.8
2018-12-14T21:18:05.681Z,28.8
2018-12-14T21:20:15.506Z,28.8
2018-12-14T21:22:05.664Z,28.8
2018-12-14T21:24:05.901Z,28.8
2018-12-14T21:26:05.674Z,28.8
2018-12-14T21:28:06.265Z,28.8
2018-12-14T21:30:08.495Z,28.7
2018-12-14T21:32:05.154Z,28.7
2018-12-14T21:34:06.064Z,28.7
2018-12-14T21:36:05.960Z,28.8
2018-12-14T21:38:05.647Z,28.7
2018-12-14T21:40:08.518Z,28.8
2018-12-14T21:42:05.491Z,28.8
2018-12-14T21:44:05.153Z,28.7
2018-12-14T21:46:05.775Z,28.7
2018-12-14T21:48:05.697Z,28.6
2018-12-14T21:50:05.367Z,28.6
2018-12-14T21:52:10.592Z,28.6
2018-12-14T21:54:05.340Z,28.5
2018-12-14T21:56:05.043Z,28.5
2018-12-14T21:58:06.778Z,28.5
2018-12-14T22:00:08.175Z,28.6
2018-12-14T22:02:05.871Z,28.6
2018-12-14T22:04:08.112Z,28.5
2018-12-14T22:06:05.787Z,28.3
2018-12-14T22:08:05.455Z,28.4
2018-12-14T22:10:10.522Z,28.4
2018-12-14T22:12:05.245Z,28.4
2018-12-14T22:14:07.652Z,28.5
2018-12-14T22:16:05.979Z,28.5
2018-12-14T22:18:05.484Z,28.3
2018-12-14T22:20:05.707Z,28.3
2018-12-14T22:22:05.421Z,28.4
2018-12-14T22:24:05.338Z,28.3
2018-12-14T22:26:07.765Z,28.3
2018-12-14T22:28:05.483Z,28.3
2018-12-14T22:30:10.946Z,28.3
2018-12-14T22:32:05.873Z,28.3
2018-12-14T22:34:05.591Z,28.2
2018-12-14T22:36:05.376Z,28.2
2018-12-14T22:38:05.070Z,28.2
2018-12-14T22:40:06.012Z,28.2
2018-12-14T22:42:05.757Z,28
2018-12-14T22:44:06.075Z,28
2018-12-14T22:46:05.851Z,28
2018-12-14T22:48:08.067Z,28
2018-12-14T22:50:05.884Z,28
2018-12-14T22:52:05.578Z,28
2018-12-14T22:54:05.328Z,28
2018-12-14T22:56:05.111Z,28
2018-12-14T22:58:08.378Z,28
2018-12-14T23:00:05.028Z,27.9
2018-12-14T23:02:05.423Z,27.9
2018-12-14T23:04:05.174Z,28.1
2018-12-14T23:06:05.935Z,27.9
2018-12-14T23:08:05.846Z,28.1
2018-12-14T23:10:05.518Z,28
2018-12-14T23:12:10.336Z,28
2018-12-14T23:14:06.040Z,28
2018-12-14T23:16:05.713Z,27.9
2018-12-14T23:18:08.149Z,28.3
2018-12-14T23:20:05.793Z,28.3
2018-12-14T23:22:05.456Z,28.4
2018-12-14T23:24:05.143Z,28.5
2018-12-14T23:26:05.846Z,28.5
2018-12-14T23:28:05.612Z,28.5
2018-12-14T23:30:06.070Z,28.4
2018-12-14T23:32:05.765Z,28.5
2018-12-14T23:34:06.033Z,28.4
2018-12-14T23:36:05.664Z,28.5
2018-12-14T23:38:05.333Z,28.7
2018-12-14T23:40:05.085Z,28.6
2018-12-14T23:42:05.761Z,28.5
2018-12-14T23:44:05.736Z,28.4
2018-12-14T23:46:05.490Z,28.6
2018-12-14T23:48:06.185Z,28.5
2018-12-14T23:50:08.827Z,28.4
2018-12-14T23:52:05.086Z,28.4
2018-12-14T23:54:05.347Z,28.3
2018-12-14T23:56:10.079Z,28.4
2018-12-14T23:58:05.807Z,28.4
